Ana Sayfa
METAR-TAF:

METAR-TAF

Havaalanları :

New Bedford, Massachusetts, Amerika Birleşik Devletleri

Enlem: 41-40-31N, Boylam: 070-57-25W, yükseklik: 24 m

Güncel hava durumu gözlemi

Rapor saat 12:53 UTC de 43 dakika önce yapıldı.
Rüzgar batı/kuzeybatıdan 6 kt
Sıcaklık 17°C
Nem 59%
Basınç 1023 hPa
Görüş mesafesi: 16.1 km
Açık gökyüzü

METAR: KEWB 251253Z 29006KT 10SM CLR 17/09 A3020 RMK AO2 SLP226 T01720094

Saat: 09:36 (13:36 UTC)


TAF: eksik

4.000'den fazla havaalanı için hava durumu gözlemleri ve tahminleri (METAR ve TAF raporları).

Kullanılabilir istasyonlar harita üzerinde sarı ve kırmızı noktalarla gösterilir.

İstasyonun adını görmek için fareyi noktanın üzerinde gezdirin.

Sonrasında hava gözlem ve tahminlerini görmek için tıklayın.

Haritayı değiştirmek için: yaklaştırmak için siyah artı işaretli yeşil düğmeye ve uzaklaştırmak için de eksi işaretli düğmeye hızla tıklayın; bitişik haritalar için yeşil okları kullanın.


METAR-TAF: